• Join FlightAware (Why Join?)
  • Login
  • US Flag 
12:04AM EDT


 

Airport Tracker/Info


-or-


 

Live Flight TrackerFlight Track Log ✈ AWE801 ✈ 26-Apr-2013 ✈ KCLT - KMCO

Flight Track Log - Related Links

Times and Time Zones

All times are in EDT time to prevent confusion due to time zone crossing. See the AWE801 flight status page for this flight to view local times or setup timezone preferences in your user account.

Time Position Orientation Groundspeed Altitude Reporting Facility
EDT Latitude Longitude Course Direction KTS MPH feet Rate Location/Type
09:36AM 35.2590 -80.9160 37° Northeast 188 216 2,800  Level FlightAware
09:36AM 35.2670 -80.9120 22° Northeast 195 224 3,300 2,100 Climbing FlightAware
09:37AM 35.2930 -80.9000 21° North 222 255 4,200 1,860 Climbing FlightAware
09:37AM 35.3000 -80.8840 62° Northeast 252 290 4,700 1,800 Climbing FlightAware
09:37AM 35.3010 -80.8770 80° East 255 293 4,800 2,640 Climbing FlightAware
09:38AM 35.2940 -80.8480 106° East 269 310 5,800 2,880 Climbing FlightAware
09:38AM 35.2800 -80.8310 135° Southeast 279 321 6,500 2,760 Climbing FlightAware
09:38AM 35.2610 -80.8230 161° South 280 322 7,200 2,760 Climbing FlightAware
09:39AM 35.2230 -80.8250 182° South 288 331 8,600 2,760 Climbing FlightAware
09:39AM 35.2040 -80.8280 187° South 291 335 9,300 2,280 Climbing FlightAware
09:40AM 35.1460 -80.8380 188° South 329 379 10,700 1,980 Climbing FlightAware
09:40AM 35.0840 -80.8460 186° South 373 429 12,000 2,700 Climbing FlightAware
09:41AM 35.0370 -80.8510 185° South 386 444 14,600 3,660 Climbing FlightAware
09:42AM 34.9370 -80.8610 185° South 400 460 17,200 3,600 Climbing FlightAware
09:42AM 34.8600 -80.8700 185° South 420 483 19,400 3,240 Climbing FlightAware
09:43AM 34.7660 -80.8810 185° South 436 502 21,800 2,160 Climbing FlightAware
09:44AM 34.6500 -80.8850 182° South 464 534 23,000 900 Climbing FlightAware
09:45AM 34.5560 -80.8760 175° South 457 526 23,300 1,440 Climbing FlightAware
09:45AM 34.4720 -80.8850 185° South 454 522 25,100 2,760 Climbing FlightAware
09:46AM 34.3880 -80.9040 191° South 458 527 27,000 2,520 Climbing FlightAware
09:47AM 34.3150 -80.9230 192° South 470 541 28,300 2,100 Climbing FlightAware
09:47AM 34.2160 -80.9490 192° South 484 557 29,800 1,080 Climbing FlightAware
09:48AM 34.1100 -80.9700 189° South 506 582 30,000 120 Climbing FlightAware
09:49AM 34.0080 -80.9750 182° South 492 566 30,000 420 Level FlightAware
09:50AM 33.9200 -80.9800 183° South 490 564 30,600 720 Climbing FlightAware
09:50AM 33.8220 -80.9880 184° South 502 578 31,000 1,440 Climbing FlightAware
09:51AM 33.7190 -80.9920 182° South 489 563 32,700 2,100 Climbing FlightAware
09:52AM 33.6270 -80.9960 182° South 494 568 34,000 900 Climbing FlightAware
09:52AM 33.5280 -81.0000 182° South 502 578 34,000  Level FlightAware
09:53AM 33.4310 -81.0040 182° South 494 568 34,000  Level FlightAware
09:54AM 33.3400 -81.0080 182° South 491 565 34,000  Level FlightAware
09:54AM 33.2410 -81.0120 182° South 488 562 34,000  Level FlightAware
09:55AM 33.1690 -81.0140 181° South 486 559 34,000  Level FlightAware
09:56AM 33.0480 -81.0190 182° South 484 557 34,000  Level FlightAware
09:57AM 32.9590 -81.0230 182° South 482 555 34,000  Level FlightAware
09:57AM 32.8700 -81.0280 183° South 481 554 34,000  Level FlightAware
09:58AM 32.7690 -81.0330 182° South 481 554 34,000  Level FlightAware
09:59AM 32.6820 -81.0380 183° South 482 555 34,000  Level FlightAware
09:59AM 32.5920 -81.0420 182° South 483 556 34,000  Level FlightAware
10:00AM 32.5080 -81.0460 182° South 483 556 34,000  Level FlightAware
10:01AM 32.4170 -81.0500 182° South 482 555 34,000  Level FlightAware
10:02AM 32.2900 -81.0560 182° South 482 555 34,000  Level FlightAware
10:02AM 32.2900 -81.0560 182° South 483 556 34,000  Level FlightAware
10:03AM 32.2140 -81.0590 182° South 483 556 34,000  Level FlightAware
10:04AM 32.1190 -81.0630 182° South 483 556 34,000  Level FlightAware
10:04AM 32.0430 -81.0670 183° South 483 556 34,000  Level FlightAware
10:05AM 31.9670 -81.0700 182° South 483 556 34,000  Level FlightAware
10:06AM 31.8910 -81.0730 182° South 483 556 34,000  Level FlightAware
10:06AM 31.8150 -81.0760 182° South 483 556 34,000  Level FlightAware
10:07AM 31.7200 -81.0800 182° South 483 556 34,000  Level FlightAware
10:08AM 31.6630 -81.0820 182° South 483 556 34,000  Level FlightAware
10:08AM 31.5870 -81.0850 182° South 483 556 34,000  Level FlightAware
10:09AM 31.4920 -81.0890 182° South 483 556 34,000  Level FlightAware
10:10AM 31.4160 -81.0920 182° South 483 556 34,000  Level FlightAware
10:11AM 31.3400 -81.0950 182° South 483 556 34,000  Level FlightAware
10:11AM 31.2650 -81.0980 182° South 483 556 34,000  Level FlightAware
10:12AM 30.8622 -81.1453 182° South 483 556 34,000  Level Jacksonville Center
10:13AM 30.7264 -81.1525 183° South 483 556 34,000  Level Jacksonville Center
10:14AM 30.5928 -81.1550 181° South 476 548 34,000 -780 Level Jacksonville Center
10:15AM 30.4592 -81.1503 178° South 476 548 32,500 -1,440 Descending Jacksonville Center
10:16AM 30.3172 -81.1456 178° South 488 562 31,200 -1,500 Descending Jacksonville Center
10:17AM 30.1856 -81.1408 178° South 488 562 29,600 -1,620 Descending Jacksonville Center
10:18AM 30.0542 -81.1383 179° South 476 548 28,000 -1,140 Descending Jacksonville Center
10:19AM 29.9203 -81.1361 179° South 476 548 27,400 -1,200 Descending Jacksonville Center
10:20AM 29.7867 -81.1311 178° South 476 548 25,700 -2,040 Descending Jacksonville Center
10:26AM 29.1120 -81.0850 178° South 434 499 14,600 -2,280 Descending FlightAware
10:26AM 29.0440 -81.0800 176° South 373 429 12,300 -2,160 Descending FlightAware
10:27AM 28.9790 -81.0740 175° South 311 358 11,600 -1,200 Descending FlightAware
10:28AM 28.9080 -81.0620 172° South 309 356 10,500 -1,320 Descending FlightAware
10:29AM 28.8480 -81.0530 173° South 294 338 9,700 -1,020 Descending FlightAware
10:29AM 28.8310 -81.0500 171° South 291 335 9,500 -300 Descending FlightAware
10:29AM 28.8010 -81.0450 172° South 291 335 9,500 -1,200 Level FlightAware
10:30AM 28.7740 -81.0910 236° Southwest 274 315 8,400 -2,280 Descending FlightAware
10:30AM 28.7610 -81.1180 241° Southwest 270 311 7,600 -2,520 Descending FlightAware
10:31AM 28.7410 -81.1630 243° Southwest 272 313 6,100 -2,040 Descending FlightAware
10:31AM 28.7330 -81.1790 240° Southwest 260 299 5,900 -600 Descending FlightAware
10:31AM 28.7190 -81.2090 242° Southwest 227 261 5,700 -600 Descending FlightAware
10:32AM 28.7110 -81.2250 240° Southwest 221 254 5,500 -1,620 Descending FlightAware
10:32AM 28.6950 -81.2570 240° Southwest 227 261 4,500 -1,980 Descending FlightAware
10:33AM 28.6780 -81.2790 229° Southwest 223 257 3,700 -1,800 Descending FlightAware
10:33AM 28.6530 -81.2910 203° Southwest 227 261 3,000 -1,020 Descending FlightAware
10:34AM 28.6210 -81.3050 201° Southwest 211 243 2,700 -600 Descending FlightAware
10:34AM 28.5980 -81.3140 199° South 200 230 2,400 -120 Descending FlightAware
10:34AM 28.5850 -81.3275 199° South 215 247 2,600 120 Climbing Jacksonville Center
10:35AM 28.5667 -81.3333 196° South 186 214 2,500 -420 Descending Orlando TRACON